KIMM

Immokalee Regional Airport

Immokalee, Florida, USA
METAR KIMM 250055Z AUTO 00000KT 10SM BKN027 BKN033 25/22 A3004 RMK AO2
Observed Flight Rules
May-25 @ 00:55 UTC (23 minutes ago) Marginal Visual Flight Rules
Visibility Clouds
10 miles
  • Broken at 2,700' AGL
  • Broken at 3,300' AGL
Temperatures Readings
Current 25°C / 77°F
Dewpoint 22°C / 72°F
Humidity 83%
Altimeter 30.04" Hg
Pressure 1017 hPa
Elevation 12
METAR KIMM 250055Z AUTO 00000KT 10SM BKN027 BKN033 25/22 A3004 RMK AO2
Observed Flight Rules
May-25 @ 00:55 UTC
(23 minutes ago)
MVFR
Clouds
  • Broken at 2,700' AGL
  • Broken at 3,300' AGL
Temperature Dewpoint
25°C / 77°F 22°C / 72°F
Humidity Altimeter Pressure
83% 30.04" Hg 1017 hPa